sensor_id;sensor_type;location;lat;lon;timestamp;temperature;humidity
37754;DHT22;23596;52.520;13.464;2023-06-14T00:05:34;17.00;90.80
37754;DHT22;23596;52.520;13.464;2023-06-14T00:08:04;16.90;91.50
37754;DHT22;23596;52.520;13.464;2023-06-14T00:10:32;16.70;92.00
37754;DHT22;23596;52.520;13.464;2023-06-14T00:13:03;16.70;92.20
37754;DHT22;23596;52.520;13.464;2023-06-14T00:15:31;16.70;92.60
37754;DHT22;23596;52.520;13.464;2023-06-14T00:18:00;16.70;92.80
37754;DHT22;23596;52.520;13.464;2023-06-14T00:20:30;16.70;92.90
37754;DHT22;23596;52.520;13.464;2023-06-14T00:23:02;16.70;93.10
37754;DHT22;23596;52.520;13.464;2023-06-14T00:25:28;16.70;93.30
37754;DHT22;23596;52.520;13.464;2023-06-14T00:27:54;16.70;93.70
37754;DHT22;23596;52.520;13.464;2023-06-14T00:30:20;16.60;94.20
37754;DHT22;23596;52.520;13.464;2023-06-14T00:32:46;16.60;94.40
37754;DHT22;23596;52.520;13.464;2023-06-14T00:35:12;16.50;94.80
37754;DHT22;23596;52.520;13.464;2023-06-14T00:37:38;16.50;94.90
37754;DHT22;23596;52.520;13.464;2023-06-14T00:40:05;16.50;95.20
37754;DHT22;23596;52.520;13.464;2023-06-14T00:42:31;16.50;95.40
37754;DHT22;23596;52.520;13.464;2023-06-14T00:44:57;16.50;95.80
37754;DHT22;23596;52.520;13.464;2023-06-14T00:47:23;16.50;96.20
37754;DHT22;23596;52.520;13.464;2023-06-14T00:49:50;16.50;96.60
37754;DHT22;23596;52.520;13.464;2023-06-14T00:52:19;16.40;96.80
37754;DHT22;23596;52.520;13.464;2023-06-14T00:54:44;16.40;97.50
37754;DHT22;23596;52.520;13.464;2023-06-14T00:57:11;16.40;98.00
37754;DHT22;23596;52.520;13.464;2023-06-14T00:59:43;16.30;98.30
37754;DHT22;23596;52.520;13.464;2023-06-14T01:02:09;16.20;98.80
37754;DHT22;23596;52.520;13.464;2023-06-14T01:04:34;16.30;99.30
37754;DHT22;23596;52.520;13.464;2023-06-14T01:15:13;16.30;99.90
37754;DHT22;23596;52.520;13.464;2023-06-14T01:17:39;16.30;99.90
37754;DHT22;23596;52.520;13.464;2023-06-14T01:20:12;15.00;99.90
37754;DHT22;23596;52.520;13.464;2023-06-14T01:22:53;16.20;99.90
37754;DHT22;23596;52.520;13.464;2023-06-14T01:25:19;16.30;99.90
37754;DHT22;23596;52.520;13.464;2023-06-14T01:27:48;16.20;99.90
37754;DHT22;23596;52.520;13.464;2023-06-14T01:30:15;16.20;99.90
37754;DHT22;23596;52.520;13.464;2023-06-14T01:32:41;16.20;99.90
37754;DHT22;23596;52.520;13.464;2023-06-14T01:35:07;16.20;99.90
37754;DHT22;23596;52.520;13.464;2023-06-14T01:37:33;16.20;99.90
37754;DHT22;23596;52.520;13.464;2023-06-14T01:39:59;16.20;99.90
37754;DHT22;23596;52.520;13.464;2023-06-14T01:42:38;16.10;99.90
37754;DHT22;23596;52.520;13.464;2023-06-14T01:45:05;16.10;99.90
37754;DHT22;23596;52.520;13.464;2023-06-14T01:47:34;16.10;99.90
37754;DHT22;23596;52.520;13.464;2023-06-14T01:50:04;16.10;99.90
37754;DHT22;23596;52.520;13.464;2023-06-14T01:52:30;16.00;99.90
37754;DHT22;23596;52.520;13.464;2023-06-14T01:54:56;15.90;99.90
37754;DHT22;23596;52.520;13.464;2023-06-14T01:57:24;15.90;99.90
37754;DHT22;23596;52.520;13.464;2023-06-14T01:59:50;15.90;99.90
37754;DHT22;23596;52.520;13.464;2023-06-14T02:02:16;15.80;99.90
37754;DHT22;23596;52.520;13.464;2023-06-14T02:04:42;15.80;99.90
37754;DHT22;23596;52.520;13.464;2023-06-14T02:07:08;15.80;99.90
37754;DHT22;23596;52.520;13.464;2023-06-14T02:09:34;15.70;99.90
37754;DHT22;23596;52.520;13.464;2023-06-14T02:12:03;15.70;99.90
37754;DHT22;23596;52.520;13.464;2023-06-14T02:14:28;15.70;99.90
37754;DHT22;23596;52.520;13.464;2023-06-14T02:16:54;15.70;99.90
37754;DHT22;23596;52.520;13.464;2023-06-14T02:19:20;15.70;99.90
37754;DHT22;23596;52.520;13.464;2023-06-14T02:21:46;15.70;99.90
37754;DHT22;23596;52.520;13.464;2023-06-14T02:24:12;15.70;99.90
37754;DHT22;23596;52.520;13.464;2023-06-14T02:26:38;15.60;99.90
37754;DHT22;23596;52.520;13.464;2023-06-14T02:29:05;15.60;99.90
37754;DHT22;23596;52.520;13.464;2023-06-14T02:38:15;15.50;99.90
37754;DHT22;23596;52.520;13.464;2023-06-14T02:40:41;15.50;99.90
37754;DHT22;23596;52.520;13.464;2023-06-14T02:43:08;15.50;99.90
37754;DHT22;23596;52.520;13.464;2023-06-14T02:45:33;15.50;99.90
37754;DHT22;23596;52.520;13.464;2023-06-14T02:47:59;15.40;99.90
37754;DHT22;23596;52.520;13.464;2023-06-14T02:50:25;15.50;99.90
37754;DHT22;23596;52.520;13.464;2023-06-14T02:52:51;15.40;99.90
37754;DHT22;23596;52.520;13.464;2023-06-14T02:55:18;15.40;99.90
37754;DHT22;23596;52.520;13.464;2023-06-14T02:57:43;15.40;99.90
37754;DHT22;23596;52.520;13.464;2023-06-14T03:00:09;15.40;99.90
37754;DHT22;23596;52.520;13.464;2023-06-14T03:02:36;15.30;99.90
37754;DHT22;23596;52.520;13.464;2023-06-14T03:05:02;15.30;99.90
37754;DHT22;23596;52.520;13.464;2023-06-14T03:07:28;15.40;99.90
37754;DHT22;23596;52.520;13.464;2023-06-14T03:09:55;15.30;99.90
37754;DHT22;23596;52.520;13.464;2023-06-14T03:12:20;15.40;99.90
37754;DHT22;23596;52.520;13.464;2023-06-14T03:14:46;15.40;99.90
37754;DHT22;23596;52.520;13.464;2023-06-14T03:17:12;15.40;99.90
37754;DHT22;23596;52.520;13.464;2023-06-14T03:19:37;15.40;99.90
37754;DHT22;23596;52.520;13.464;2023-06-14T03:22:03;15.40;99.90
37754;DHT22;23596;52.520;13.464;2023-06-14T03:24:29;15.40;99.90
37754;DHT22;23596;52.520;13.464;2023-06-14T03:26:57;15.40;99.90
37754;DHT22;23596;52.520;13.464;2023-06-14T03:29:22;15.40;99.90
37754;DHT22;23596;52.520;13.464;2023-06-14T03:32:02;15.40;99.90
37754;DHT22;23596;52.520;13.464;2023-06-14T03:34:28;15.30;99.90
37754;DHT22;23596;52.520;13.464;2023-06-14T03:36:54;15.30;99.90
37754;DHT22;23596;52.520;13.464;2023-06-14T03:39:19;15.30;99.90
37754;DHT22;23596;52.520;13.464;2023-06-14T03:41:45;15.30;99.90
37754;DHT22;23596;52.520;13.464;2023-06-14T03:44:14;15.30;99.90
37754;DHT22;23596;52.520;13.464;2023-06-14T03:46:39;15.30;99.90
37754;DHT22;23596;52.520;13.464;2023-06-14T03:49:05;15.30;99.90
37754;DHT22;23596;52.520;13.464;2023-06-14T03:51:31;15.30;99.90
37754;DHT22;23596;52.520;13.464;2023-06-14T03:53:56;15.30;99.90
37754;DHT22;23596;52.520;13.464;2023-06-14T03:56:22;15.30;99.90
37754;DHT22;23596;52.520;13.464;2023-06-14T03:58:47;15.30;99.90
37754;DHT22;23596;52.520;13.464;2023-06-14T04:01:13;15.30;99.90
37754;DHT22;23596;52.520;13.464;2023-06-14T04:03:39;15.30;99.90
37754;DHT22;23596;52.520;13.464;2023-06-14T04:06:05;15.30;99.90
37754;DHT22;23596;52.520;13.464;2023-06-14T04:08:32;15.40;99.90
37754;DHT22;23596;52.520;13.464;2023-06-14T04:10:57;15.40;99.90
37754;DHT22;23596;52.520;13.464;2023-06-14T04:13:23;15.40;99.90
37754;DHT22;23596;52.520;13.464;2023-06-14T04:15:49;15.50;99.90
37754;DHT22;23596;52.520;13.464;2023-06-14T04:18:14;15.50;99.90
37754;DHT22;23596;52.520;13.464;2023-06-14T04:20:40;15.50;99.90
37754;DHT22;23596;52.520;13.464;2023-06-14T04:23:17;15.50;99.90
37754;DHT22;23596;52.520;13.464;2023-06-14T04:25:46;15.50;99.90
37754;DHT22;23596;52.520;13.464;2023-06-14T04:28:13;15.60;99.90
37754;DHT22;23596;52.520;13.464;2023-06-14T04:30:41;15.50;99.90
37754;DHT22;23596;52.520;13.464;2023-06-14T04:33:07;15.50;99.90
37754;DHT22;23596;52.520;13.464;2023-06-14T04:35:35;15.60;99.90
37754;DHT22;23596;52.520;13.464;2023-06-14T04:38:01;15.60;99.90
37754;DHT22;23596;52.520;13.464;2023-06-14T04:40:30;15.60;99.90
37754;DHT22;23596;52.520;13.464;2023-06-14T04:42:56;15.60;99.90
37754;DHT22;23596;52.520;13.464;2023-06-14T04:45:23;15.60;99.90
37754;DHT22;23596;52.520;13.464;2023-06-14T04:47:49;15.60;99.90
37754;DHT22;23596;52.520;13.464;2023-06-14T04:50:16;15.60;99.90
37754;DHT22;23596;52.520;13.464;2023-06-14T04:52:43;15.60;99.90
37754;DHT22;23596;52.520;13.464;2023-06-14T04:55:09;15.60;99.90
37754;DHT22;23596;52.520;13.464;2023-06-14T04:57:35;15.60;99.90
37754;DHT22;23596;52.520;13.464;2023-06-14T05:00:01;15.70;99.90
37754;DHT22;23596;52.520;13.464;2023-06-14T05:02:29;15.70;99.90
37754;DHT22;23596;52.520;13.464;2023-06-14T05:04:56;15.70;99.90
37754;DHT22;23596;52.520;13.464;2023-06-14T05:07:22;15.80;99.90
37754;DHT22;23596;52.520;13.464;2023-06-14T05:09:49;15.80;99.90
37754;DHT22;23596;52.520;13.464;2023-06-14T05:12:14;15.80;99.90
37754;DHT22;23596;52.520;13.464;2023-06-14T05:14:44;15.80;99.90
37754;DHT22;23596;52.520;13.464;2023-06-14T05:17:10;15.80;99.90
37754;DHT22;23596;52.520;13.464;2023-06-14T05:19:36;15.80;99.90
37754;DHT22;23596;52.520;13.464;2023-06-14T05:22:01;15.90;99.90
37754;DHT22;23596;52.520;13.464;2023-06-14T05:24:28;15.90;99.90
37754;DHT22;23596;52.520;13.464;2023-06-14T05:26:56;16.00;99.90
37754;DHT22;23596;52.520;13.464;2023-06-14T05:29:22;16.10;99.90
37754;DHT22;23596;52.520;13.464;2023-06-14T05:31:47;16.10;99.90
37754;DHT22;23596;52.520;13.464;2023-06-14T05:34:13;16.10;99.90
37754;DHT22;23596;52.520;13.464;2023-06-14T05:36:38;16.10;99.90
37754;DHT22;23596;52.520;13.464;2023-06-14T05:39:04;16.20;99.90
37754;DHT22;23596;52.520;13.464;2023-06-14T05:41:31;16.30;99.90
37754;DHT22;23596;52.520;13.464;2023-06-14T05:43:57;16.30;99.90
37754;DHT22;23596;52.520;13.464;2023-06-14T05:46:23;16.40;99.90
37754;DHT22;23596;52.520;13.464;2023-06-14T05:48:54;16.40;99.90
37754;DHT22;23596;52.520;13.464;2023-06-14T05:51:20;16.30;99.90
37754;DHT22;23596;52.520;13.464;2023-06-14T05:53:46;16.30;99.90
37754;DHT22;23596;52.520;13.464;2023-06-14T05:56:13;16.30;99.90
37754;DHT22;23596;52.520;13.464;2023-06-14T05:58:39;16.40;99.90
37754;DHT22;23596;52.520;13.464;2023-06-14T06:01:05;16.30;99.90
37754;DHT22;23596;52.520;13.464;2023-06-14T06:03:31;16.40;99.90
37754;DHT22;23596;52.520;13.464;2023-06-14T06:05:56;16.40;99.90
37754;DHT22;23596;52.520;13.464;2023-06-14T06:08:22;16.40;99.90
37754;DHT22;23596;52.520;13.464;2023-06-14T06:10:48;16.50;99.90
37754;DHT22;23596;52.520;13.464;2023-06-14T06:13:14;16.50;99.90
37754;DHT22;23596;52.520;13.464;2023-06-14T06:15:39;16.50;99.90
37754;DHT22;23596;52.520;13.464;2023-06-14T06:18:05;16.50;99.90
37754;DHT22;23596;52.520;13.464;2023-06-14T06:20:31;16.50;99.90
37754;DHT22;23596;52.520;13.464;2023-06-14T06:22:58;16.50;99.90
37754;DHT22;23596;52.520;13.464;2023-06-14T06:25:25;16.60;99.90
37754;DHT22;23596;52.520;13.464;2023-06-14T06:27:54;16.60;99.90
37754;DHT22;23596;52.520;13.464;2023-06-14T06:30:22;16.50;99.90
37754;DHT22;23596;52.520;13.464;2023-06-14T06:32:47;16.50;99.90
37754;DHT22;23596;52.520;13.464;2023-06-14T06:35:13;16.60;99.90
37754;DHT22;23596;52.520;13.464;2023-06-14T06:37:39;16.60;99.90
37754;DHT22;23596;52.520;13.464;2023-06-14T06:40:05;16.50;99.90
37754;DHT22;23596;52.520;13.464;2023-06-14T06:42:34;16.60;99.90
37754;DHT22;23596;52.520;13.464;2023-06-14T06:45:00;16.60;99.90
37754;DHT22;23596;52.520;13.464;2023-06-14T06:47:26;16.60;99.90
37754;DHT22;23596;52.520;13.464;2023-06-14T06:49:52;16.70;99.90
37754;DHT22;23596;52.520;13.464;2023-06-14T06:52:17;16.30;99.90
37754;DHT22;23596;52.520;13.464;2023-06-14T06:54:43;16.80;99.90
37754;DHT22;23596;52.520;13.464;2023-06-14T06:57:08;16.80;99.90
37754;DHT22;23596;52.520;13.464;2023-06-14T06:59:36;16.90;99.90
37754;DHT22;23596;52.520;13.464;2023-06-14T07:02:02;16.90;99.90
37754;DHT22;23596;52.520;13.464;2023-06-14T07:04:27;16.90;99.90
37754;DHT22;23596;52.520;13.464;2023-06-14T07:06:53;17.00;99.90
37754;DHT22;23596;52.520;13.464;2023-06-14T07:09:19;17.00;99.90
37754;DHT22;23596;52.520;13.464;2023-06-14T07:11:45;17.10;99.90
37754;DHT22;23596;52.520;13.464;2023-06-14T07:14:11;17.20;99.90
37754;DHT22;23596;52.520;13.464;2023-06-14T07:16:37;17.20;99.90
37754;DHT22;23596;52.520;13.464;2023-06-14T07:19:03;17.20;99.90
37754;DHT22;23596;52.520;13.464;2023-06-14T07:21:29;17.20;99.90
37754;DHT22;23596;52.520;13.464;2023-06-14T07:23:55;17.30;99.90
37754;DHT22;23596;52.520;13.464;2023-06-14T07:26:21;17.30;99.90
37754;DHT22;23596;52.520;13.464;2023-06-14T07:28:47;17.40;99.90
37754;DHT22;23596;52.520;13.464;2023-06-14T07:31:14;17.40;99.90
37754;DHT22;23596;52.520;13.464;2023-06-14T07:33:41;17.30;99.90
37754;DHT22;23596;52.520;13.464;2023-06-14T07:36:07;17.30;99.90
37754;DHT22;23596;52.520;13.464;2023-06-14T07:38:33;17.40;99.90
37754;DHT22;23596;52.520;13.464;2023-06-14T07:40:59;17.60;99.90
37754;DHT22;23596;52.520;13.464;2023-06-14T07:43:25;17.60;99.90
37754;DHT22;23596;52.520;13.464;2023-06-14T07:45:50;17.60;99.90
37754;DHT22;23596;52.520;13.464;2023-06-14T07:48:16;17.60;99.90
37754;DHT22;23596;52.520;13.464;2023-06-14T07:50:42;17.80;99.90
37754;DHT22;23596;52.520;13.464;2023-06-14T07:53:07;17.80;99.90
37754;DHT22;23596;52.520;13.464;2023-06-14T07:55:33;17.90;99.90
37754;DHT22;23596;52.520;13.464;2023-06-14T07:58:02;17.90;99.90
37754;DHT22;23596;52.520;13.464;2023-06-14T08:00:28;18.00;99.90
37754;DHT22;23596;52.520;13.464;2023-06-14T08:02:57;18.00;99.90
37754;DHT22;23596;52.520;13.464;2023-06-14T08:05:25;18.00;99.90
37754;DHT22;23596;52.520;13.464;2023-06-14T08:07:54;18.00;99.90
37754;DHT22;23596;52.520;13.464;2023-06-14T08:10:20;18.10;99.90
37754;DHT22;23596;52.520;13.464;2023-06-14T08:12:46;18.00;99.90
37754;DHT22;23596;52.520;13.464;2023-06-14T08:15:12;18.10;99.90
37754;DHT22;23596;52.520;13.464;2023-06-14T08:17:37;18.20;99.90
37754;DHT22;23596;52.520;13.464;2023-06-14T08:20:03;18.20;99.90
37754;DHT22;23596;52.520;13.464;2023-06-14T08:22:32;19.10;99.90
37754;DHT22;23596;52.520;13.464;2023-06-14T08:25:01;18.40;99.90
37754;DHT22;23596;52.520;13.464;2023-06-14T08:27:27;18.50;99.90
37754;DHT22;23596;52.520;13.464;2023-06-14T08:29:53;18.60;99.90
37754;DHT22;23596;52.520;13.464;2023-06-14T08:32:18;18.80;99.90
37754;DHT22;23596;52.520;13.464;2023-06-14T08:34:44;18.90;99.90
37754;DHT22;23596;52.520;13.464;2023-06-14T08:37:10;18.90;99.90
37754;DHT22;23596;52.520;13.464;2023-06-14T08:39:36;18.90;99.90
37754;DHT22;23596;52.520;13.464;2023-06-14T08:42:02;18.90;99.90
37754;DHT22;23596;52.520;13.464;2023-06-14T08:44:29;18.90;99.90
37754;DHT22;23596;52.520;13.464;2023-06-14T08:46:56;18.90;99.90
37754;DHT22;23596;52.520;13.464;2023-06-14T08:49:25;19.00;99.90
37754;DHT22;23596;52.520;13.464;2023-06-14T08:51:59;19.00;99.90
37754;DHT22;23596;52.520;13.464;2023-06-14T08:54:28;19.00;99.90
37754;DHT22;23596;52.520;13.464;2023-06-14T08:57:00;19.10;99.90
37754;DHT22;23596;52.520;13.464;2023-06-14T08:59:28;19.20;99.90
37754;DHT22;23596;52.520;13.464;2023-06-14T09:01:56;19.30;99.90
37754;DHT22;23596;52.520;13.464;2023-06-14T09:04:22;19.40;99.90
37754;DHT22;23596;52.520;13.464;2023-06-14T09:06:49;19.50;99.90
37754;DHT22;23596;52.520;13.464;2023-06-14T09:09:21;19.60;99.90
37754;DHT22;23596;52.520;13.464;2023-06-14T09:11:51;19.80;99.90
37754;DHT22;23596;52.520;13.464;2023-06-14T09:14:18;19.90;99.90
37754;DHT22;23596;52.520;13.464;2023-06-14T09:16:44;20.00;99.90
37754;DHT22;23596;52.520;13.464;2023-06-14T09:19:23;20.00;99.40
37754;DHT22;23596;52.520;13.464;2023-06-14T09:21:50;20.00;98.30
37754;DHT22;23596;52.520;13.464;2023-06-14T09:24:17;20.10;98.70
37754;DHT22;23596;52.520;13.464;2023-06-14T09:26:42;20.10;98.40
37754;DHT22;23596;52.520;13.464;2023-06-14T09:29:09;20.10;98.00
37754;DHT22;23596;52.520;13.464;2023-06-14T09:31:35;20.10;97.80
37754;DHT22;23596;52.520;13.464;2023-06-14T09:34:02;20.10;97.80
37754;DHT22;23596;52.520;13.464;2023-06-14T09:36:28;20.10;97.50
37754;DHT22;23596;52.520;13.464;2023-06-14T09:39:01;20.10;97.70
37754;DHT22;23596;52.520;13.464;2023-06-14T09:41:41;20.10;97.90
37754;DHT22;23596;52.520;13.464;2023-06-14T09:44:09;20.20;97.80
37754;DHT22;23596;52.520;13.464;2023-06-14T09:46:36;20.30;97.70
37754;DHT22;23596;52.520;13.464;2023-06-14T09:49:02;20.40;97.60
37754;DHT22;23596;52.520;13.464;2023-06-14T09:51:28;20.50;97.00
37754;DHT22;23596;52.520;13.464;2023-06-14T09:53:59;20.60;97.00
37754;DHT22;23596;52.520;13.464;2023-06-14T09:56:44;20.40;96.50
37754;DHT22;23596;52.520;13.464;2023-06-14T09:59:12;20.70;96.40
37754;DHT22;23596;52.520;13.464;2023-06-14T10:01:43;20.70;95.90
37754;DHT22;23596;52.520;13.464;2023-06-14T10:04:09;20.80;95.70
37754;DHT22;23596;52.520;13.464;2023-06-14T10:06:43;20.80;95.80
37754;DHT22;23596;52.520;13.464;2023-06-14T10:09:11;20.80;95.60
37754;DHT22;23596;52.520;13.464;2023-06-14T10:11:37;20.70;95.80
37754;DHT22;23596;52.520;13.464;2023-06-14T10:14:10;20.70;95.20
37754;DHT22;23596;52.520;13.464;2023-06-14T10:16:56;20.60;95.40
37754;DHT22;23596;52.520;13.464;2023-06-14T10:19:25;20.60;95.10
37754;DHT22;23596;52.520;13.464;2023-06-14T10:22:12;20.60;94.90
37754;DHT22;23596;52.520;13.464;2023-06-14T10:24:44;20.60;94.70
37754;DHT22;23596;52.520;13.464;2023-06-14T10:27:13;20.70;95.00
37754;DHT22;23596;52.520;13.464;2023-06-14T10:32:26;20.80;95.40
37754;DHT22;23596;52.520;13.464;2023-06-14T10:35:16;20.80;95.30
37754;DHT22;23596;52.520;13.464;2023-06-14T10:37:40;20.80;95.20
37754;DHT22;23596;52.520;13.464;2023-06-14T10:40:06;20.90;95.10
37754;DHT22;23596;52.520;13.464;2023-06-14T10:42:34;20.90;95.10
37754;DHT22;23596;52.520;13.464;2023-06-14T10:45:00;20.90;94.60
37754;DHT22;23596;52.520;13.464;2023-06-14T10:47:36;20.90;94.80
37754;DHT22;23596;52.520;13.464;2023-06-14T10:50:10;20.90;94.50
37754;DHT22;23596;52.520;13.464;2023-06-14T10:52:41;20.90;94.30
37754;DHT22;23596;52.520;13.464;2023-06-14T10:55:15;21.00;93.80
37754;DHT22;23596;52.520;13.464;2023-06-14T10:57:42;21.10;93.40
37754;DHT22;23596;52.520;13.464;2023-06-14T11:00:09;21.40;93.30
37754;DHT22;23596;52.520;13.464;2023-06-14T11:02:57;21.30;93.50
37754;DHT22;23596;52.520;13.464;2023-06-14T11:05:48;21.50;93.10
37754;DHT22;23596;52.520;13.464;2023-06-14T11:11:00;21.80;93.00
37754;DHT22;23596;52.520;13.464;2023-06-14T11:13:26;21.80;92.70
37754;DHT22;23596;52.520;13.464;2023-06-14T11:15:52;21.90;92.40
37754;DHT22;23596;52.520;13.464;2023-06-14T11:18:23;22.00;92.20
37754;DHT22;23596;52.520;13.464;2023-06-14T11:20:50;22.20;92.00
37754;DHT22;23596;52.520;13.464;2023-06-14T11:23:16;22.30;91.90
37754;DHT22;23596;52.520;13.464;2023-06-14T11:25:41;22.30;91.50
37754;DHT22;23596;52.520;13.464;2023-06-14T11:28:07;22.40;91.60
37754;DHT22;23596;52.520;13.464;2023-06-14T11:30:33;22.40;91.30
37754;DHT22;23596;52.520;13.464;2023-06-14T11:32:59;22.50;91.00
37754;DHT22;23596;52.520;13.464;2023-06-14T11:35:25;22.60;90.90
37754;DHT22;23596;52.520;13.464;2023-06-14T11:37:55;22.70;90.50
37754;DHT22;23596;52.520;13.464;2023-06-14T11:40:26;22.50;89.30
37754;DHT22;23596;52.520;13.464;2023-06-14T11:43:02;22.60;89.90
37754;DHT22;23596;52.520;13.464;2023-06-14T11:45:29;22.60;89.60
37754;DHT22;23596;52.520;13.464;2023-06-14T11:47:55;22.70;89.70
37754;DHT22;23596;52.520;13.464;2023-06-14T11:50:25;22.90;88.70
37754;DHT22;23596;52.520;13.464;2023-06-14T11:52:54;22.90;89.10
37754;DHT22;23596;52.520;13.464;2023-06-14T11:55:22;23.00;88.60
37754;DHT22;23596;52.520;13.464;2023-06-14T11:57:47;23.10;87.10
37754;DHT22;23596;52.520;13.464;2023-06-14T12:00:14;23.00;86.70
37754;DHT22;23596;52.520;13.464;2023-06-14T12:02:41;23.00;87.10
37754;DHT22;23596;52.520;13.464;2023-06-14T12:05:07;23.00;86.50
37754;DHT22;23596;52.520;13.464;2023-06-14T12:07:36;23.10;86.70
37754;DHT22;23596;52.520;13.464;2023-06-14T12:12:28;23.60;86.20
37754;DHT22;23596;52.520;13.464;2023-06-14T12:14:57;23.90;85.70
37754;DHT22;23596;52.520;13.464;2023-06-14T12:17:23;24.20;84.80
37754;DHT22;23596;52.520;13.464;2023-06-14T12:19:49;24.60;84.10
37754;DHT22;23596;52.520;13.464;2023-06-14T12:22:16;25.00;83.90
37754;DHT22;23596;52.520;13.464;2023-06-14T12:24:46;25.10;80.60
37754;DHT22;23596;52.520;13.464;2023-06-14T12:27:15;25.30;78.80
37754;DHT22;23596;52.520;13.464;2023-06-14T12:29:42;25.50;78.00
37754;DHT22;23596;52.520;13.464;2023-06-14T12:32:11;25.70;76.90
37754;DHT22;23596;52.520;13.464;2023-06-14T12:34:37;26.20;73.20
37754;DHT22;23596;52.520;13.464;2023-06-14T12:37:03;26.20;74.10
37754;DHT22;23596;52.520;13.464;2023-06-14T12:39:31;26.50;71.80
37754;DHT22;23596;52.520;13.464;2023-06-14T12:41:58;26.90;71.10
37754;DHT22;23596;52.520;13.464;2023-06-14T12:44:23;27.10;70.30
37754;DHT22;23596;52.520;13.464;2023-06-14T12:46:49;27.40;68.90
37754;DHT22;23596;52.520;13.464;2023-06-14T12:49:17;27.60;67.60
37754;DHT22;23596;52.520;13.464;2023-06-14T12:51:42;27.90;66.80
37754;DHT22;23596;52.520;13.464;2023-06-14T12:54:08;28.20;66.80
37754;DHT22;23596;52.520;13.464;2023-06-14T12:56:34;28.60;65.60
37754;DHT22;23596;52.520;13.464;2023-06-14T12:59:00;28.90;64.90
37754;DHT22;23596;52.520;13.464;2023-06-14T13:01:26;29.00;64.20
37754;DHT22;23596;52.520;13.464;2023-06-14T13:03:51;29.30;63.60
37754;DHT22;23596;52.520;13.464;2023-06-14T13:06:21;29.60;62.40
37754;DHT22;23596;52.520;13.464;2023-06-14T13:08:48;30.00;62.80
37754;DHT22;23596;52.520;13.464;2023-06-14T13:11:14;30.50;61.00
37754;DHT22;23596;52.520;13.464;2023-06-14T13:13:40;31.00;60.50
37754;DHT22;23596;52.520;13.464;2023-06-14T13:16:05;31.40;60.10
37754;DHT22;23596;52.520;13.464;2023-06-14T13:18:31;31.50;60.10
37754;DHT22;23596;52.520;13.464;2023-06-14T13:20:57;31.70;58.90
37754;DHT22;23596;52.520;13.464;2023-06-14T13:23:22;31.70;58.60
37754;DHT22;23596;52.520;13.464;2023-06-14T13:25:48;31.60;58.40
37754;DHT22;23596;52.520;13.464;2023-06-14T13:28:16;31.90;57.10
37754;DHT22;23596;52.520;13.464;2023-06-14T13:30:42;32.50;55.60
37754;DHT22;23596;52.520;13.464;2023-06-14T13:33:07;32.90;55.40
37754;DHT22;23596;52.520;13.464;2023-06-14T13:35:33;33.20;53.50
37754;DHT22;23596;52.520;13.464;2023-06-14T13:37:59;33.50;53.10
37754;DHT22;23596;52.520;13.464;2023-06-14T13:40:24;33.90;52.60
37754;DHT22;23596;52.520;13.464;2023-06-14T13:42:50;33.80;53.40
37754;DHT22;23596;52.520;13.464;2023-06-14T13:45:15;33.60;53.10
37754;DHT22;23596;52.520;13.464;2023-06-14T13:47:41;33.40;52.80
37754;DHT22;23596;52.520;13.464;2023-06-14T13:50:07;33.60;53.10
37754;DHT22;23596;52.520;13.464;2023-06-14T13:52:33;34.20;53.00
37754;DHT22;23596;52.520;13.464;2023-06-14T13:55:00;34.80;51.20
37754;DHT22;23596;52.520;13.464;2023-06-14T13:57:26;34.80;51.30
37754;DHT22;23596;52.520;13.464;2023-06-14T13:59:51;34.30;51.30
37754;DHT22;23596;52.520;13.464;2023-06-14T14:02:18;34.00;51.60
37754;DHT22;23596;52.520;13.464;2023-06-14T14:04:45;33.90;51.80
37754;DHT22;23596;52.520;13.464;2023-06-14T14:07:16;33.70;51.80
37754;DHT22;23596;52.520;13.464;2023-06-14T14:09:42;33.10;52.00
37754;DHT22;23596;52.520;13.464;2023-06-14T14:12:08;32.40;52.80
37754;DHT22;23596;52.520;13.464;2023-06-14T14:14:34;31.80;53.70
37754;DHT22;23596;52.520;13.464;2023-06-14T14:16:59;31.20;54.10
37754;DHT22;23596;52.520;13.464;2023-06-14T14:19:25;30.70;54.40
37754;DHT22;23596;52.520;13.464;2023-06-14T14:21:51;30.30;55.30
37754;DHT22;23596;52.520;13.464;2023-06-14T14:24:19;29.90;55.30
37754;DHT22;23596;52.520;13.464;2023-06-14T14:26:45;29.30;55.70
37754;DHT22;23596;52.520;13.464;2023-06-14T14:29:13;29.30;56.10
37754;DHT22;23596;52.520;13.464;2023-06-14T14:31:38;29.10;55.70
37754;DHT22;23596;52.520;13.464;2023-06-14T14:34:04;29.00;56.40
37754;DHT22;23596;52.520;13.464;2023-06-14T14:36:30;28.80;57.00
37754;DHT22;23596;52.520;13.464;2023-06-14T14:38:55;28.90;56.60
37754;DHT22;23596;52.520;13.464;2023-06-14T14:41:21;29.20;55.60
37754;DHT22;23596;52.520;13.464;2023-06-14T14:43:47;29.20;55.30
37754;DHT22;23596;52.520;13.464;2023-06-14T14:46:12;29.20;54.90
37754;DHT22;23596;52.520;13.464;2023-06-14T14:48:38;29.10;55.00
37754;DHT22;23596;52.520;13.464;2023-06-14T14:51:04;28.80;55.00
37754;DHT22;23596;52.520;13.464;2023-06-14T14:53:29;28.40;55.60
37754;DHT22;23596;52.520;13.464;2023-06-14T14:55:55;28.20;56.90
37754;DHT22;23596;52.520;13.464;2023-06-14T14:58:20;27.90;58.10
37754;DHT22;23596;52.520;13.464;2023-06-14T15:00:47;27.60;58.60
37754;DHT22;23596;52.520;13.464;2023-06-14T15:03:13;27.20;58.90
37754;DHT22;23596;52.520;13.464;2023-06-14T15:05:39;26.80;59.40
37754;DHT22;23596;52.520;13.464;2023-06-14T15:08:06;26.40;60.00
37754;DHT22;23596;52.520;13.464;2023-06-14T15:10:40;26.00;60.00
37754;DHT22;23596;52.520;13.464;2023-06-14T15:13:09;25.70;60.20
37754;DHT22;23596;52.520;13.464;2023-06-14T15:15:35;25.70;60.60
37754;DHT22;23596;52.520;13.464;2023-06-14T15:18:03;25.50;60.90
37754;DHT22;23596;52.520;13.464;2023-06-14T15:20:30;25.20;61.20
37754;DHT22;23596;52.520;13.464;2023-06-14T15:22:56;25.20;61.60
37754;DHT22;23596;52.520;13.464;2023-06-14T15:25:28;25.00;61.90
37754;DHT22;23596;52.520;13.464;2023-06-14T15:27:55;25.00;62.10
37754;DHT22;23596;52.520;13.464;2023-06-14T15:30:21;24.80;62.00
37754;DHT22;23596;52.520;13.464;2023-06-14T15:32:47;24.80;62.50
37754;DHT22;23596;52.520;13.464;2023-06-14T15:35:13;24.70;62.80
37754;DHT22;23596;52.520;13.464;2023-06-14T15:37:39;24.60;63.10
37754;DHT22;23596;52.520;13.464;2023-06-14T15:40:05;24.60;63.50
37754;DHT22;23596;52.520;13.464;2023-06-14T15:42:31;24.60;63.20